Time;durP1;ratioP1;P1;durP2;ratioP2;P2;SDS_P1;SDS_P2;PMS_P1;PMS_P2;Temp;Humidity;BMP_temperature;BMP_pressure;BME280_temperature;BME280_humidity;BME280_pressure;Samples;Min_cycle;Max_cycle;Signal;HPM_P1;HPM_P2
2023/10/21 00:00:08;;;;;;;0.10;0.10;;;13.90;99.90;;;;;;5063738;28;20653;-80
2023/10/21 00:02:33;;;;;;;0.10;0.10;;;13.80;99.90;;;;;;5068330;28;20189;-80
2023/10/21 00:04:59;;;;;;;0.10;0.10;;;13.80;99.90;;;;;;5064076;28;20183;-81
2023/10/21 00:07:25;;;;;;;0.10;0.10;;;14.00;99.90;;;;;;5068369;28;20207;-80
2023/10/21 00:09:51;;;;;;;0.10;0.10;;;14.00;99.90;;;;;;5063441;28;20176;-80
2023/10/21 00:12:16;;;;;;;0.10;0.10;;;14.00;99.90;;;;;;5069693;28;20273;-80
2023/10/21 00:14:42;;;;;;;0.10;0.10;;;14.10;99.90;;;;;;5059941;28;20214;-80
2023/10/21 00:17:07;;;;;;;0.10;0.10;;;14.20;99.90;;;;;;5069356;28;20756;-80
2023/10/21 00:19:34;;;;;;;0.10;0.10;;;14.20;99.90;;;;;;5062410;28;20279;-80
2023/10/21 00:21:59;;;;;;;0.10;0.10;;;14.20;99.90;;;;;;5067547;28;20271;-80
2023/10/21 00:24:25;;;;;;;0.10;0.10;;;14.20;99.90;;;;;;5069802;28;20195;-80
2023/10/21 00:26:51;;;;;;;0.10;0.10;;;14.10;99.90;;;;;;5069346;28;20249;-80
2023/10/21 00:29:17;;;;;;;0.10;0.10;;;13.90;99.90;;;;;;5069908;28;20220;-80
2023/10/21 00:31:43;;;;;;;0.10;0.10;;;13.80;99.90;;;;;;5067379;28;20249;-79
2023/10/21 00:34:10;;;;;;;0.10;0.10;;;13.60;99.90;;;;;;5068452;28;20186;-80
2023/10/21 00:36:36;;;;;;;0.10;0.10;;;13.70;99.90;;;;;;5067597;28;20295;-80
2023/10/21 00:39:02;;;;;;;0.10;0.10;;;13.80;99.90;;;;;;5068692;28;20633;-80
2023/10/21 00:41:27;;;;;;;0.10;0.10;;;13.90;99.90;;;;;;5068147;28;20335;-80
2023/10/21 00:43:53;;;;;;;0.10;0.10;;;14.00;99.90;;;;;;5066769;28;20274;-80
2023/10/21 00:46:19;;;;;;;0.10;0.10;;;14.10;99.90;;;;;;5068040;28;20188;-80
2023/10/21 00:48:48;;;;;;;0.10;0.10;;;14.10;99.90;;;;;;5068988;28;20266;-80
2023/10/21 00:51:17;;;;;;;0.10;0.10;;;14.10;99.90;;;;;;5068720;28;20277;-80
2023/10/21 00:53:43;;;;;;;0.10;0.10;;;13.90;99.90;;;;;;5058634;28;20579;-80
2023/10/21 00:56:08;;;;;;;0.10;0.10;;;14.00;99.90;;;;;;5067000;28;20212;-80
2023/10/21 00:58:35;;;;;;;0.10;0.10;;;14.10;99.90;;;;;;5068730;28;20244;-80
2023/10/21 01:01:02;;;;;;;0.10;0.10;;;14.20;99.90;;;;;;5062929;28;20223;-80
2023/10/21 01:03:29;;;;;;;0.10;0.10;;;14.20;99.90;;;;;;5069299;28;20188;-79
2023/10/21 01:05:56;;;;;;;0.10;0.10;;;14.10;99.90;;;;;;5067121;28;20230;-80
2023/10/21 01:08:22;;;;;;;0.10;0.10;;;14.10;99.90;;;;;;5068356;28;20306;-80
2023/10/21 01:10:47;;;;;;;0.10;0.10;;;14.10;99.90;;;;;;5058608;28;20218;-80
2023/10/21 01:13:13;;;;;;;0.10;0.10;;;14.20;99.90;;;;;;5063134;28;20199;-79
2023/10/21 01:15:38;;;;;;;0.10;0.10;;;14.30;99.90;;;;;;5068390;28;20228;-81
2023/10/21 01:18:06;;;;;;;0.10;0.10;;;14.30;99.90;;;;;;5084519;28;20216;-79
2023/10/21 01:20:32;;;;;;;0.10;0.10;;;14.30;99.90;;;;;;5062073;28;20184;-80
2023/10/21 01:22:58;;;;;;;0.10;0.10;;;14.30;99.90;;;;;;5066444;28;20668;-80
2023/10/21 01:25:24;;;;;;;0.10;0.10;;;14.30;99.90;;;;;;5063515;28;20199;-80
2023/10/21 01:27:54;;;;;;;0.10;0.10;;;14.30;99.90;;;;;;5064131;28;20208;-80
2023/10/21 01:30:20;;;;;;;0.10;0.10;;;14.30;99.90;;;;;;5067372;28;20250;-80
2023/10/21 01:32:47;;;;;;;0.10;0.10;;;14.30;99.90;;;;;;5063028;28;20191;-80
2023/10/21 01:35:13;;;;;;;0.20;0.20;;;14.30;99.90;;;;;;5067204;28;20212;-81
2023/10/21 01:37:38;;;;;;;0.10;0.10;;;14.30;99.90;;;;;;5066684;28;20343;-80
2023/10/21 01:40:05;;;;;;;0.10;0.10;;;14.30;99.90;;;;;;5066589;28;20275;-80
2023/10/21 01:42:34;;;;;;;0.10;0.10;;;14.30;99.90;;;;;;5064534;28;20293;-79
2023/10/21 01:45:00;;;;;;;0.10;0.10;;;14.30;99.90;;;;;;5059978;28;20635;-80
2023/10/21 01:47:26;;;;;;;0.10;0.10;;;14.30;99.90;;;;;;5065026;28;20218;-81
2023/10/21 01:49:52;;;;;;;0.10;0.10;;;14.30;99.90;;;;;;5066311;28;20286;-80
2023/10/21 01:52:17;;;;;;;0.10;0.10;;;14.30;99.90;;;;;;5063223;28;20277;-80
2023/10/21 01:54:44;;;;;;;0.10;0.10;;;14.30;99.90;;;;;;5070612;28;20192;-80
2023/10/21 01:57:09;;;;;;;0.10;0.10;;;14.30;99.90;;;;;;5067829;28;20219;-80
2023/10/21 01:59:39;;;;;;;0.10;0.10;;;14.30;99.90;;;;;;5068033;28;20305;-80
2023/10/21 02:02:05;;;;;;;0.10;0.10;;;14.30;99.90;;;;;;5066611;28;20281;-80
2023/10/21 02:04:31;;;;;;;0.10;0.10;;;14.30;99.90;;;;;;5072316;28;20187;-80
2023/10/21 02:06:56;;;;;;;0.10;0.10;;;14.30;99.90;;;;;;5065959;28;20196;-80
2023/10/21 02:09:22;;;;;;;0.10;0.10;;;14.30;99.90;;;;;;5070125;28;20195;-80
2023/10/21 02:11:47;;;;;;;0.10;0.10;;;14.20;99.90;;;;;;5068696;28;20207;-80
2023/10/21 02:14:13;;;;;;;0.10;0.10;;;14.30;99.90;;;;;;5069629;28;20202;-80
2023/10/21 02:16:39;;;;;;;0.10;0.10;;;14.30;99.90;;;;;;5067799;28;20615;-80
2023/10/21 02:19:04;;;;;;;0.10;0.10;;;14.30;99.90;;;;;;5070245;28;20203;-79
2023/10/21 02:21:30;;;;;;;0.10;0.10;;;14.40;99.90;;;;;;5071506;28;20270;-79
2023/10/21 02:23:55;;;;;;;0.10;0.10;;;14.30;99.90;;;;;;5069922;28;20184;-79
2023/10/21 02:26:21;;;;;;;0.10;0.10;;;14.30;99.90;;;;;;5065673;28;20196;-79
2023/10/21 02:28:46;;;;;;;20.03;18.63;;;14.40;99.90;;;;;;5068579;28;20202;-80
2023/10/21 02:31:12;;;;;;;0.10;0.10;;;14.40;99.90;;;;;;5071091;28;20190;-80
2023/10/21 02:33:38;;;;;;;0.10;0.10;;;14.40;99.90;;;;;;5070974;28;20183;-80
2023/10/21 02:36:04;;;;;;;0.10;0.10;;;14.40;99.90;;;;;;5070389;28;20637;-80
2023/10/21 02:38:30;;;;;;;0.10;0.10;;;14.40;99.90;;;;;;5069148;28;20207;-80
2023/10/21 02:40:55;;;;;;;0.10;0.10;;;14.50;99.90;;;;;;5063702;28;20194;-79
2023/10/21 02:43:21;;;;;;;0.10;0.10;;;14.50;99.90;;;;;;5068190;28;20724;-80
2023/10/21 02:45:48;;;;;;;0.10;0.10;;;14.50;99.90;;;;;;5070418;28;20187;-79
2023/10/21 02:48:14;;;;;;;0.10;0.10;;;14.50;99.90;;;;;;5069055;28;20242;-80
2023/10/21 02:50:40;;;;;;;0.10;0.10;;;14.50;99.90;;;;;;5068012;28;20658;-80
2023/10/21 02:53:05;;;;;;;0.00;0.00;;;14.50;99.90;;;;;;5068427;28;20226;-80
2023/10/21 02:55:31;;;;;;;0.10;0.10;;;14.50;99.90;;;;;;5070253;28;20236;-80
2023/10/21 02:57:57;;;;;;;0.10;0.10;;;14.50;99.90;;;;;;5070351;28;20862;-80
2023/10/21 03:00:22;;;;;;;0.10;0.10;;;14.50;99.90;;;;;;5065260;28;20187;-80
2023/10/21 03:02:48;;;;;;;0.10;0.10;;;14.40;99.90;;;;;;5070767;28;20192;-80
2023/10/21 03:05:15;;;;;;;0.10;0.10;;;14.30;99.90;;;;;;5064087;28;20187;-80
2023/10/21 03:07:41;;;;;;;0.10;0.10;;;14.30;99.90;;;;;;5067680;28;20204;-80
2023/10/21 03:10:07;;;;;;;0.10;0.10;;;14.30;99.90;;;;;;5070222;28;20318;-80
2023/10/21 03:12:32;;;;;;;0.10;0.10;;;14.30;99.90;;;;;;5068940;28;20191;-80
2023/10/21 03:15:00;;;;;;;0.10;0.10;;;14.40;99.90;;;;;;5068657;28;20268;-80
2023/10/21 03:17:26;;;;;;;0.10;0.10;;;14.50;99.90;;;;;;5068730;28;20195;-80
2023/10/21 03:19:54;;;;;;;0.10;0.10;;;14.50;99.90;;;;;;5068228;28;20184;-80
2023/10/21 03:22:20;;;;;;;0.10;0.10;;;14.50;99.90;;;;;;5067659;28;20184;-80
2023/10/21 03:24:45;;;;;;;0.10;0.10;;;14.40;99.90;;;;;;5066939;28;20679;-80
2023/10/21 03:27:13;;;;;;;0.10;0.10;;;14.40;99.90;;;;;;5068369;28;21017;-79
2023/10/21 03:29:39;;;;;;;0.10;0.10;;;14.40;99.90;;;;;;5068853;28;20300;-79
2023/10/21 03:32:05;;;;;;;0.10;0.10;;;14.30;99.90;;;;;;5057527;28;20188;-79
2023/10/21 03:34:33;;;;;;;0.10;0.10;;;14.30;99.90;;;;;;5061466;28;20215;-80
2023/10/21 03:36:59;;;;;;;0.10;0.10;;;14.20;99.90;;;;;;5060675;28;20353;-79
2023/10/21 03:39:26;;;;;;;0.10;0.10;;;14.20;99.90;;;;;;5062482;28;20187;-78
2023/10/21 03:41:52;;;;;;;0.10;0.10;;;14.20;99.90;;;;;;5068673;28;20287;-79
2023/10/21 03:44:17;;;;;;;0.10;0.10;;;14.20;99.90;;;;;;5060000;28;20426;-80
2023/10/21 03:46:43;;;;;;;0.10;0.10;;;14.20;99.90;;;;;;5063804;28;20215;-79
2023/10/21 03:49:08;;;;;;;0.10;0.10;;;14.20;99.90;;;;;;5068353;28;20191;-80
2023/10/21 03:51:34;;;;;;;0.10;0.10;;;14.20;99.90;;;;;;5063430;28;20192;-79
2023/10/21 03:54:01;;;;;;;0.10;0.10;;;14.20;99.90;;;;;;5069556;28;20551;-79
2023/10/21 03:56:27;;;;;;;0.10;0.10;;;14.30;99.90;;;;;;5064644;28;20240;-79
2023/10/21 03:58:52;;;;;;;0.10;0.10;;;14.30;99.90;;;;;;5065928;28;20691;-79
2023/10/21 04:01:20;;;;;;;0.10;0.10;;;14.40;99.90;;;;;;5060476;28;20788;-79
2023/10/21 04:03:46;;;;;;;0.10;0.10;;;14.40;99.90;;;;;;5067653;28;20207;-79
2023/10/21 04:06:13;;;;;;;0.10;0.10;;;14.40;99.90;;;;;;5060267;28;20224;-79
2023/10/21 04:08:39;;;;;;;0.10;0.10;;;14.40;99.90;;;;;;5068555;28;20828;-79
2023/10/21 04:11:05;;;;;;;0.10;0.10;;;14.40;99.90;;;;;;5066300;28;20199;-79
2023/10/21 04:13:31;;;;;;;0.10;0.10;;;14.40;99.90;;;;;;5068785;28;20207;-80
2023/10/21 04:15:59;;;;;;;0.10;0.10;;;14.40;99.90;;;;;;5061421;28;20246;-79
2023/10/21 04:18:24;;;;;;;0.00;0.00;;;14.40;99.90;;;;;;5067404;28;20234;-79
2023/10/21 04:20:50;;;;;;;0.10;0.10;;;14.50;99.90;;;;;;5068952;28;20682;-79
2023/10/21 04:23:16;;;;;;;0.10;0.10;;;14.50;99.90;;;;;;5069127;28;20610;-79
2023/10/21 04:25:43;;;;;;;0.10;0.10;;;14.50;99.90;;;;;;5067722;28;20233;-79
2023/10/21 04:28:08;;;;;;;0.10;0.10;;;14.50;99.90;;;;;;5066740;28;20201;-79
2023/10/21 04:30:35;;;;;;;0.10;0.10;;;14.50;99.90;;;;;;5061394;28;20697;-80
2023/10/21 04:33:00;;;;;;;0.10;0.10;;;14.50;99.90;;;;;;5067166;28;20176;-79
2023/10/21 04:35:26;;;;;;;0.10;0.10;;;14.50;99.90;;;;;;5061087;28;20204;-79
2023/10/21 04:37:52;;;;;;;0.10;0.10;;;14.40;99.90;;;;;;5064150;28;20200;-80
2023/10/21 04:40:17;;;;;;;0.10;0.10;;;14.40;99.90;;;;;;5060599;28;20233;-80
2023/10/21 04:42:43;;;;;;;0.10;0.10;;;14.40;99.90;;;;;;5061288;28;20547;-79
2023/10/21 04:45:09;;;;;;;0.10;0.10;;;14.40;99.90;;;;;;5065732;28;20203;-80
2023/10/21 04:47:35;;;;;;;0.10;0.10;;;14.50;99.90;;;;;;5061553;28;20240;-80
2023/10/21 04:50:01;;;;;;;0.10;0.10;;;14.50;99.90;;;;;;5063193;28;20260;-79
2023/10/21 04:52:27;;;;;;;0.10;0.10;;;14.50;99.90;;;;;;5060328;28;20181;-80
2023/10/21 04:54:53;;;;;;;0.10;0.10;;;14.50;99.90;;;;;;5066547;28;20258;-79
2023/10/21 04:57:18;;;;;;;0.10;0.10;;;14.50;99.90;;;;;;5066287;28;20218;-79
2023/10/21 04:59:44;;;;;;;0.10;0.10;;;14.50;99.90;;;;;;5067751;28;20179;-79
2023/10/21 05:02:10;;;;;;;0.10;0.10;;;14.50;99.90;;;;;;5066617;28;20279;-79
2023/10/21 05:04:36;;;;;;;0.10;0.10;;;14.50;99.90;;;;;;5064606;28;20651;-79
2023/10/21 05:07:02;;;;;;;0.10;0.10;;;14.60;99.90;;;;;;5067554;28;20177;-79
2023/10/21 05:09:29;;;;;;;0.10;0.10;;;14.60;99.90;;;;;;5068539;28;20212;-79
2023/10/21 05:11:54;;;;;;;0.00;0.00;;;14.60;99.90;;;;;;5062558;28;20208;-79
2023/10/21 05:14:20;;;;;;;0.10;0.10;;;14.60;99.90;;;;;;5067770;28;20181;-79
2023/10/21 05:16:46;;;;;;;0.10;0.10;;;14.60;99.90;;;;;;5069118;28;20201;-79
2023/10/21 05:19:11;;;;;;;0.10;0.10;;;14.40;99.90;;;;;;5064807;28;20668;-79
2023/10/21 05:21:37;;;;;;;0.10;0.10;;;14.30;99.90;;;;;;5066949;28;20532;-79
2023/10/21 05:24:03;;;;;;;0.10;0.10;;;14.30;99.90;;;;;;5066334;28;20179;-79
2023/10/21 05:26:29;;;;;;;0.10;0.10;;;14.40;99.90;;;;;;5059531;28;20188;-80
2023/10/21 05:28:55;;;;;;;0.10;0.10;;;14.50;99.90;;;;;;5066700;28;20261;-80
2023/10/21 05:31:21;;;;;;;0.10;0.10;;;14.50;99.90;;;;;;5069496;28;20188;-80
2023/10/21 05:33:46;;;;;;;0.10;0.10;;;14.60;99.90;;;;;;5071932;28;20177;-80
2023/10/21 05:36:12;;;;;;;0.10;0.10;;;14.50;99.90;;;;;;5069386;28;20799;-80
2023/10/21 05:38:38;;;;;;;0.10;0.10;;;14.60;99.90;;;;;;5070753;28;21043;-79
2023/10/21 05:41:03;;;;;;;0.10;0.10;;;14.50;99.90;;;;;;5070088;28;20181;-80
2023/10/21 05:43:29;;;;;;;0.10;0.10;;;14.50;99.90;;;;;;5062336;28;20178;-80
2023/10/21 05:45:55;;;;;;;0.10;0.10;;;14.40;99.90;;;;;;5070014;28;20188;-80
2023/10/21 05:48:20;;;;;;;0.10;0.10;;;14.30;99.90;;;;;;5063876;28;20206;-79
2023/10/21 05:50:47;;;;;;;0.10;0.10;;;14.40;99.90;;;;;;5070552;28;20194;-80
2023/10/21 05:53:13;;;;;;;0.10;0.10;;;14.40;99.90;;;;;;5060397;28;20702;-80
2023/10/21 05:55:44;;;;;;;0.10;0.10;;;14.40;99.90;;;;;;5071151;28;20208;-80
2023/10/21 05:58:10;;;;;;;0.10;0.10;;;14.40;99.90;;;;;;5070087;28;20200;-80
2023/10/21 06:00:36;;;;;;;0.10;0.10;;;14.30;99.90;;;;;;5062852;28;20596;-80
2023/10/21 06:03:03;;;;;;;0.10;0.10;;;14.30;99.90;;;;;;5070860;28;20275;-81
2023/10/21 06:05:28;;;;;;;0.10;0.10;;;14.30;99.90;;;;;;5062622;28;20234;-80
2023/10/21 06:07:54;;;;;;;0.10;0.10;;;14.30;99.90;;;;;;5069945;28;20240;-80
2023/10/21 06:10:22;;;;;;;0.10;0.10;;;14.30;99.90;;;;;;5068302;28;20669;-80
2023/10/21 06:12:48;;;;;;;0.10;0.10;;;14.40;99.90;;;;;;5071882;28;20183;-79
2023/10/21 06:15:14;;;;;;;0.10;0.10;;;14.50;99.90;;;;;;5064976;28;20707;-80
2023/10/21 06:17:39;;;;;;;0.10;0.10;;;14.50;99.90;;;;;;5071596;28;20634;-79
2023/10/21 06:20:07;;;;;;;0.10;0.10;;;14.50;99.90;;;;;;5064027;28;20254;-80
2023/10/21 06:22:33;;;;;;;0.10;0.10;;;14.60;99.90;;;;;;5062592;28;20706;-79
2023/10/21 06:24:59;;;;;;;0.10;0.10;;;14.60;99.90;;;;;;5069643;28;20173;-79
2023/10/21 06:27:25;;;;;;;0.10;0.10;;;14.60;99.90;;;;;;5069901;28;20227;-79
2023/10/21 06:29:50;;;;;;;0.10;0.10;;;14.70;99.90;;;;;;5072555;28;20583;-79
2023/10/21 06:32:16;;;;;;;0.10;0.10;;;14.70;99.90;;;;;;5067298;28;20199;-79
2023/10/21 06:34:41;;;;;;;0.10;0.10;;;14.70;99.90;;;;;;5064783;28;20217;-79
2023/10/21 06:37:07;;;;;;;0.10;0.10;;;14.70;99.90;;;;;;5065560;28;20227;-79
2023/10/21 06:39:33;;;;;;;0.10;0.10;;;14.70;99.90;;;;;;5071236;28;20177;-79
2023/10/21 06:41:58;;;;;;;0.10;0.10;;;14.70;99.90;;;;;;5070912;28;20195;-79
2023/10/21 06:44:24;;;;;;;0.10;0.10;;;14.70;99.90;;;;;;5068228;28;20230;-79
2023/10/21 06:46:50;;;;;;;0.10;0.10;;;14.70;99.90;;;;;;5069466;28;20188;-79
2023/10/21 06:49:15;;;;;;;0.10;0.10;;;14.70;99.90;;;;;;5066424;28;20307;-79
2023/10/21 06:51:41;;;;;;;0.10;0.10;;;14.60;99.90;;;;;;5069514;28;20184;-79
2023/10/21 06:54:07;;;;;;;0.10;0.10;;;14.60;99.90;;;;;;5071318;28;20283;-79
2023/10/21 06:56:33;;;;;;;0.10;0.10;;;14.50;99.90;;;;;;5070344;28;20311;-79
2023/10/21 06:58:59;;;;;;;0.10;0.10;;;14.40;99.90;;;;;;5067240;28;20907;-79
2023/10/21 07:01:25;;;;;;;0.10;0.10;;;14.30;99.90;;;;;;5068531;28;20241;-79
2023/10/21 07:03:53;;;;;;;0.10;0.10;;;14.20;99.90;;;;;;5066941;28;20192;-79
2023/10/21 07:06:18;;;;;;;0.10;0.10;;;14.50;99.90;;;;;;5067816;28;20197;-78
2023/10/21 07:08:44;;;;;;;0.10;0.10;;;14.80;99.90;;;;;;5066681;28;20609;-79
2023/10/21 07:11:10;;;;;;;0.10;0.10;;;15.00;99.90;;;;;;5069278;28;20203;-79
2023/10/21 07:13:35;;;;;;;0.10;0.10;;;15.20;99.90;;;;;;5061360;28;20624;-79
2023/10/21 07:16:10;;;;;;;0.10;0.10;;;15.20;99.90;;;;;;5064155;28;20684;-79
2023/10/21 07:18:39;;;;;;;0.10;0.10;;;15.10;99.90;;;;;;5064472;28;20291;-79
2023/10/21 07:21:05;;;;;;;0.10;0.10;;;15.00;99.90;;;;;;5083659;28;20202;-79
2023/10/21 07:23:34;;;;;;;0.10;0.10;;;14.90;99.90;;;;;;5075985;28;20193;-79
2023/10/21 07:26:00;;;;;;;0.10;0.10;;;14.80;99.90;;;;;;5077561;28;20197;-78
2023/10/21 07:28:26;;;;;;;0.10;0.10;;;14.70;99.90;;;;;;5076646;28;20216;-79
2023/10/21 07:30:53;;;;;;;0.10;0.10;;;14.50;99.90;;;;;;5073678;28;20204;-78
2023/10/21 07:33:20;;;;;;;0.10;0.10;;;14.50;99.90;;;;;;5073160;28;20698;-78
2023/10/21 07:35:50;;;;;;;0.10;0.10;;;14.50;99.90;;;;;;5072801;28;20198;-80
2023/10/21 07:38:16;;;;;;;0.10;0.10;;;14.60;99.90;;;;;;5071880;28;20201;-78
2023/10/21 07:40:43;;;;;;;0.10;0.10;;;14.60;99.90;;;;;;5068530;28;20191;-79
2023/10/21 07:43:09;;;;;;;0.10;0.10;;;14.90;99.90;;;;;;5068169;28;20293;-78
2023/10/21 07:45:35;;;;;;;0.10;0.10;;;15.10;99.90;;;;;;5069624;28;20195;-79
2023/10/21 07:48:02;;;;;;;0.10;0.10;;;15.00;99.90;;;;;;5068910;28;20273;-78
2023/10/21 07:50:27;;;;;;;0.10;0.10;;;15.10;99.90;;;;;;5070186;28;20686;-78
2023/10/21 07:52:53;;;;;;;0.10;0.10;;;15.00;99.90;;;;;;5071070;28;20184;-78
2023/10/21 07:55:19;;;;;;;0.10;0.10;;;14.90;99.90;;;;;;5064600;28;20215;-79
2023/10/21 07:57:44;;;;;;;0.10;0.10;;;14.90;99.90;;;;;;5068704;28;20296;-78
2023/10/21 08:00:14;;;;;;;0.10;0.10;;;14.80;99.90;;;;;;5066808;28;20180;-78
2023/10/21 08:02:40;;;;;;;0.10;0.10;;;15.00;99.90;;;;;;5062311;28;20179;-78
2023/10/21 08:05:07;;;;;;;0.10;0.10;;;15.30;99.90;;;;;;5070640;28;20554;-78
2023/10/21 08:07:33;;;;;;;0.10;0.10;;;15.50;99.90;;;;;;5069368;28;20201;-78
2023/10/21 08:09:58;;;;;;;0.10;0.10;;;15.60;99.90;;;;;;5068080;28;20199;-78
2023/10/21 08:12:24;;;;;;;0.10;0.10;;;15.70;99.90;;;;;;5063806;28;21166;-78
2023/10/21 08:14:50;;;;;;;0.10;0.10;;;15.60;99.90;;;;;;5064135;28;20752;-78
2023/10/21 08:17:15;;;;;;;0.10;0.10;;;15.30;99.90;;;;;;5069007;28;20788;-78
2023/10/21 08:19:41;;;;;;;0.10;0.10;;;15.20;99.90;;;;;;5067577;28;20532;-79
2023/10/21 08:22:06;;;;;;;0.10;0.10;;;15.20;99.90;;;;;;5063750;28;20177;-79
2023/10/21 08:24:32;;;;;;;0.10;0.10;;;15.20;99.90;;;;;;5061326;28;20723;-79
2023/10/21 08:26:59;;;;;;;0.10;0.10;;;15.30;99.90;;;;;;5070248;28;20397;-79
2023/10/21 08:29:25;;;;;;;0.10;0.10;;;15.40;99.90;;;;;;5061509;28;20212;-79
2023/10/21 08:31:50;;;;;;;0.10;0.10;;;15.50;99.90;;;;;;5067107;28;20191;-79
2023/10/21 08:34:16;;;;;;;0.10;0.10;;;15.60;99.90;;;;;;5063279;28;20185;-79
2023/10/21 08:36:42;;;;;;;0.10;0.10;;;15.60;99.90;;;;;;5061386;28;20623;-81
2023/10/21 08:39:08;;;;;;;0.10;0.10;;;15.70;99.90;;;;;;5067819;28;20199;-81
2023/10/21 08:41:38;;;;;;;0.10;0.10;;;15.70;99.90;;;;;;5063851;28;20185;-81
2023/10/21 08:44:05;;;;;;;0.10;0.10;;;15.80;99.90;;;;;;5070040;28;20189;-79
2023/10/21 08:46:32;;;;;;;0.10;0.10;;;16.00;99.90;;;;;;5066824;28;20738;-79
2023/10/21 08:48:58;;;;;;;0.10;0.10;;;16.30;99.90;;;;;;5065715;28;20231;-79
2023/10/21 08:51:26;;;;;;;0.10;0.10;;;16.20;99.90;;;;;;5062523;28;20201;-80
2023/10/21 08:54:00;;;;;;;0.10;0.10;;;16.40;99.90;;;;;;5061973;28;20202;-79
2023/10/21 08:56:27;;;;;;;0.10;0.10;;;16.40;99.90;;;;;;5065266;28;20311;-79
2023/10/21 08:58:55;;;;;;;0.10;0.10;;;16.70;99.90;;;;;;5064411;28;20201;-78
2023/10/21 09:01:22;;;;;;;0.10;0.10;;;16.80;99.90;;;;;;5069096;28;20180;-78
2023/10/21 09:03:49;;;;;;;0.10;0.10;;;16.90;99.90;;;;;;5068625;28;20174;-79
2023/10/21 09:06:17;;;;;;;0.10;0.10;;;16.70;99.90;;;;;;5064144;28;20193;-79
2023/10/21 09:08:44;;;;;;;0.10;0.10;;;16.50;99.90;;;;;;5059959;28;20197;-79
2023/10/21 09:11:13;;;;;;;0.10;0.10;;;16.30;99.90;;;;;;5063895;28;20197;-78
2023/10/21 09:13:40;;;;;;;0.10;0.10;;;16.20;99.90;;;;;;5060392;28;20181;-79
2023/10/21 09:16:22;;;;;;;0.10;0.10;;;16.20;99.90;;;;;;5083406;28;20204;-79
2023/10/21 09:19:03;;;;;;;0.10;0.10;;;16.10;99.90;;;;;;5064029;28;20205;-79
2023/10/21 09:21:38;;;;;;;0.10;0.10;;;15.90;99.90;;;;;;5065668;28;20184;-79
2023/10/21 09:24:09;;;;;;;0.10;0.10;;;16.30;99.90;;;;;;5067570;28;20254;-78
2023/10/21 09:26:39;;;;;;;0.10;0.10;;;16.50;99.90;;;;;;5065144;28;20610;-78
2023/10/21 09:29:13;;;;;;;0.10;0.10;;;16.60;99.90;;;;;;5063429;28;20209;-79
2023/10/21 09:31:48;;;;;;;0.10;0.10;;;16.90;99.90;;;;;;5065035;28;20668;-80
2023/10/21 09:34:24;;;;;;;0.10;0.10;;;17.40;99.90;;;;;;5059669;28;20183;-79
2023/10/21 09:37:01;;;;;;;0.10;0.10;;;17.80;99.90;;;;;;5063560;28;20223;-79
2023/10/21 09:39:33;;;;;;;0.10;0.10;;;18.00;99.90;;;;;;5070675;28;20521;-79
2023/10/21 09:42:00;;;;;;;0.10;0.10;;;18.20;99.90;;;;;;5077990;28;20173;-79
2023/10/21 09:44:26;;;;;;;0.10;0.10;;;17.80;99.90;;;;;;5073049;28;20181;-79
2023/10/21 09:46:54;;;;;;;0.10;0.10;;;17.60;99.90;;;;;;5060065;28;20310;-82
2023/10/21 09:49:24;;;;;;;0.10;0.10;;;17.50;99.90;;;;;;5066970;28;20182;-82
2023/10/21 09:51:52;;;;;;;0.10;0.10;;;17.60;99.90;;;;;;5062395;28;20194;-82
2023/10/21 09:54:26;;;;;;;0.10;0.10;;;17.40;99.90;;;;;;5064580;28;20272;-82
2023/10/21 09:56:53;;;;;;;0.10;0.10;;;17.30;99.90;;;;;;5066886;28;20705;-82
2023/10/21 09:59:21;;;;;;;0.10;0.10;;;17.40;99.90;;;;;;5067083;28;20211;-82
2023/10/21 10:01:47;;;;;;;0.10;0.10;;;17.40;99.90;;;;;;5067186;28;20185;-82
2023/10/21 10:04:14;;;;;;;0.10;0.10;;;17.10;99.90;;;;;;5066092;28;20231;-82
2023/10/21 10:06:43;;;;;;;0.10;0.10;;;17.10;99.90;;;;;;5062433;28;20213;-82
2023/10/21 10:09:09;;;;;;;0.10;0.10;;;17.20;99.90;;;;;;5066729;28;20201;-82
2023/10/21 10:11:38;;;;;;;0.10;0.10;;;17.30;99.90;;;;;;5066531;28;20209;-82
2023/10/21 10:14:04;;;;;;;0.10;0.10;;;17.40;99.90;;;;;;5062339;28;20189;-82
2023/10/21 10:16:32;;;;;;;0.10;0.10;;;17.40;99.90;;;;;;5070878;28;20197;-82
2023/10/21 10:18:57;;;;;;;0.10;0.10;;;17.50;99.90;;;;;;5070139;28;20209;-82
2023/10/21 10:21:23;;;;;;;0.07;0.07;;;17.30;99.90;;;;;;5068940;28;20774;-82
2023/10/21 10:23:57;;;;;;;0.10;0.10;;;17.50;99.90;;;;;;5069877;28;20193;-82
2023/10/21 10:26:38;;;;;;;0.10;0.10;;;17.50;99.90;;;;;;5068330;28;20656;-82
2023/10/21 10:29:18;;;;;;;0.10;0.10;;;17.60;99.90;;;;;;5062521;28;20228;-82
2023/10/21 10:31:47;;;;;;;0.10;0.10;;;17.40;99.90;;;;;;5070988;28;20684;-81
2023/10/21 10:34:15;;;;;;;0.10;0.10;;;17.30;99.90;;;;;;5071088;28;20173;-81
2023/10/21 10:36:41;;;;;;;0.10;0.10;;;17.10;99.90;;;;;;5065095;28;20201;-81
2023/10/21 10:39:07;;;;;;;0.10;0.10;;;17.00;99.90;;;;;;5063035;28;20203;-79
2023/10/21 10:41:47;;;;;;;0.10;0.10;;;17.00;99.90;;;;;;5085397;28;20177;-79
2023/10/21 10:44:15;;;;;;;0.10;0.10;;;17.30;99.90;;;;;;5066841;28;20211;-79
2023/10/21 10:46:41;;;;;;;0.10;0.10;;;17.50;99.90;;;;;;5069351;28;20174;-79
2023/10/21 10:49:08;;;;;;;0.10;0.10;;;17.80;99.90;;;;;;5061326;28;20211;-81
2023/10/21 10:51:43;;;;;;;0.10;0.10;;;18.10;99.90;;;;;;5067351;28;20227;-79
2023/10/21 10:54:15;;;;;;;0.10;0.10;;;18.20;99.90;;;;;;5070713;28;20619;-83
2023/10/21 10:56:47;;;;;;;0.10;0.10;;;18.30;99.90;;;;;;5068599;28;20205;-82
2023/10/21 10:59:14;;;;;;;0.10;0.10;;;18.40;99.90;;;;;;5070934;28;20560;-82
2023/10/21 11:01:39;;;;;;;0.10;0.10;;;18.70;99.90;;;;;;5071563;28;20212;-82
2023/10/21 11:04:06;;;;;;;0.10;0.10;;;18.80;99.90;;;;;;5068158;28;20212;-82
2023/10/21 11:06:36;;;;;;;0.10;0.10;;;18.70;99.90;;;;;;5067664;28;20209;-81
2023/10/21 11:09:06;;;;;;;0.10;0.10;;;18.40;99.90;;;;;;5070251;28;20201;-81
2023/10/21 11:11:47;;;;;;;0.10;0.10;;;18.20;99.90;;;;;;5062813;28;20200;-81
2023/10/21 11:14:16;;;;;;;0.10;0.10;;;18.00;99.90;;;;;;5067422;28;20663;-81
2023/10/21 11:16:43;;;;;;;0.10;0.10;;;17.80;99.90;;;;;;5069390;28;20274;-81
2023/10/21 11:19:09;;;;;;;0.10;0.10;;;17.70;99.90;;;;;;5066190;28;20296;-81
2023/10/21 11:21:39;;;;;;;0.10;0.10;;;17.60;99.90;;;;;;5064004;28;20656;-81
2023/10/21 11:24:07;;;;;;;0.10;0.10;;;17.40;99.90;;;;;;5067055;28;20678;-81
2023/10/21 11:26:33;;;;;;;0.10;0.10;;;17.30;99.90;;;;;;5067157;28;20287;-81
2023/10/21 11:29:00;;;;;;;0.10;0.10;;;17.20;99.90;;;;;;5064783;28;20723;-81
2023/10/21 11:31:26;;;;;;;0.10;0.10;;;17.30;99.90;;;;;;5070505;28;20195;-81
2023/10/21 11:33:52;;;;;;;0.10;0.10;;;17.20;99.90;;;;;;5069580;28;20193;-81
2023/10/21 11:36:17;;;;;;;0.10;0.10;;;17.10;99.90;;;;;;5068885;28;20568;-82
2023/10/21 11:38:43;;;;;;;0.10;0.10;;;17.00;99.90;;;;;;5065843;28;20209;-81
2023/10/21 11:41:13;;;;;;;0.10;0.10;;;17.00;99.90;;;;;;5056618;28;20185;-82
2023/10/21 11:43:44;;;;;;;0.10;0.10;;;17.00;99.90;;;;;;5053549;28;20221;-82
2023/10/21 11:46:10;;;;;;;0.10;0.10;;;17.20;99.90;;;;;;5053197;28;20189;-82
2023/10/21 11:48:37;;;;;;;0.10;0.10;;;17.60;99.90;;;;;;5060081;28;20290;-81
2023/10/21 11:51:03;;;;;;;0.10;0.10;;;18.30;99.90;;;;;;5057844;28;20271;-81
2023/10/21 11:53:31;;;;;;;0.10;0.10;;;18.60;99.90;;;;;;5052368;28;20989;-81
2023/10/21 12:05:13;;;;;;;0.10;0.10;;;19.20;99.90;;;;;;5055450;28;21537;-81
2023/10/21 12:34:28;;;;;;;0.10;0.10;;;19.10;99.90;;;;;;5069133;28;20236;-81
2023/10/21 12:39:39;;;;;;;0.10;0.10;;;19.00;99.90;;;;;;5069733;28;20179;-82
2023/10/21 12:42:21;;;;;;;0.10;0.10;;;19.20;99.90;;;;;;5060764;28;20174;-80
2023/10/21 12:44:52;;;;;;;0.10;0.10;;;19.70;99.90;;;;;;5068303;28;20264;-80
2023/10/21 12:47:18;;;;;;;0.10;0.10;;;20.00;99.90;;;;;;5065566;28;20263;-79
2023/10/21 12:49:45;;;;;;;0.10;0.10;;;19.90;99.90;;;;;;5066235;28;20554;-79
2023/10/21 12:52:11;;;;;;;0.10;0.10;;;19.90;99.90;;;;;;5067590;28;20240;-79
2023/10/21 12:54:37;;;;;;;0.10;0.10;;;19.80;99.90;;;;;;5067705;28;20185;-80
2023/10/21 12:57:03;;;;;;;0.10;0.10;;;19.60;99.90;;;;;;5067601;28;20534;-80
2023/10/21 12:59:28;;;;;;;0.10;0.10;;;19.70;99.90;;;;;;5064695;28;20173;-80
2023/10/21 13:01:54;;;;;;;0.10;0.10;;;19.40;99.90;;;;;;5066143;28;20200;-80
2023/10/21 13:04:21;;;;;;;0.10;0.10;;;19.20;99.90;;;;;;5066334;28;20190;-80
2023/10/21 13:06:46;;;;;;;0.10;0.10;;;19.20;99.90;;;;;;5066850;28;20677;-80
2023/10/21 13:09:22;;;;;;;0.10;0.10;;;19.20;99.90;;;;;;5064665;28;20210;-80
2023/10/21 13:11:51;;;;;;;0.07;0.07;;;19.30;99.90;;;;;;5064402;28;20246;-79
2023/10/21 13:14:20;;;;;;;0.10;0.10;;;19.10;99.90;;;;;;5067199;28;20188;-80
2023/10/21 13:16:47;;;;;;;0.10;0.10;;;18.80;99.90;;;;;;5066535;28;20618;-79
2023/10/21 13:19:13;;;;;;;0.10;0.10;;;18.70;99.90;;;;;;5068486;28;20205;-79
2023/10/21 13:21:39;;;;;;;0.10;0.10;;;18.80;99.90;;;;;;5068617;28;20192;-79
2023/10/21 13:24:06;;;;;;;0.10;0.10;;;19.20;99.90;;;;;;5065384;28;20244;-80